sensor_id;sensor_type;location;lat;lon;timestamp;P1;durP1;ratioP1;P2;durP2;ratioP2
12878;SDS011;20617;49.476;10.986;2023-11-22T19:29:10;13.48;;;9.93;;
12878;SDS011;20617;49.476;10.986;2023-11-22T19:31:15;15.02;;;10.15;;
12878;SDS011;20617;49.476;10.986;2023-11-22T19:33:22;11.80;;;9.77;;
12878;SDS011;20617;49.476;10.986;2023-11-22T19:37:33;12.15;;;9.43;;
12878;SDS011;20617;49.476;10.986;2023-11-22T19:39:38;10.73;;;8.35;;
12878;SDS011;20617;49.476;10.986;2023-11-22T19:41:43;15.02;;;10.55;;
12878;SDS011;20617;49.476;10.986;2023-11-22T19:45:56;12.15;;;10.15;;
12878;SDS011;20617;49.476;10.986;2023-11-22T19:48:01;14.13;;;8.90;;
12878;SDS011;20617;49.476;10.986;2023-11-22T19:50:08;15.35;;;9.63;;
12878;SDS011;20617;49.476;10.986;2023-11-22T19:52:10;12.30;;;10.02;;
12878;SDS011;20617;49.476;10.986;2023-11-22T19:54:16;12.20;;;8.98;;
12878;SDS011;20617;49.476;10.986;2023-11-22T19:56:24;15.05;;;9.63;;
12878;SDS011;20617;49.476;10.986;2023-11-22T19:58:28;13.73;;;10.73;;
12878;SDS011;20617;49.476;10.986;2023-11-22T20:00:33;13.00;;;10.20;;
12878;SDS011;20617;49.476;10.986;2023-11-22T20:02:41;15.57;;;10.65;;
12878;SDS011;20617;49.476;10.986;2023-11-22T20:04:44;15.80;;;11.13;;
12878;SDS011;20617;49.476;10.986;2023-11-22T20:08:54;15.90;;;10.77;;
12878;SDS011;20617;49.476;10.986;2023-11-22T20:10:59;14.48;;;11.23;;
12878;SDS011;20617;49.476;10.986;2023-11-22T20:13:05;15.02;;;11.63;;
12878;SDS011;20617;49.476;10.986;2023-11-22T20:15:11;15.07;;;11.18;;
12878;SDS011;20617;49.476;10.986;2023-11-22T20:17:18;15.75;;;11.68;;
12878;SDS011;20617;49.476;10.986;2023-11-22T20:19:26;16.85;;;12.13;;
12878;SDS011;20617;49.476;10.986;2023-11-22T20:21:31;18.27;;;11.68;;
12878;SDS011;20617;49.476;10.986;2023-11-22T20:23:34;15.40;;;11.60;;
12878;SDS011;20617;49.476;10.986;2023-11-22T20:25:39;14.02;;;11.23;;
12878;SDS011;20617;49.476;10.986;2023-11-22T20:27:42;16.52;;;12.27;;
12878;SDS011;20617;49.476;10.986;2023-11-22T20:29:47;16.30;;;12.07;;
12878;SDS011;20617;49.476;10.986;2023-11-22T20:31:53;16.35;;;11.98;;
12878;SDS011;20617;49.476;10.986;2023-11-22T20:33:58;19.85;;;12.30;;
12878;SDS011;20617;49.476;10.986;2023-11-22T20:36:04;14.55;;;11.75;;
12878;SDS011;20617;49.476;10.986;2023-11-22T20:38:09;16.10;;;12.23;;
12878;SDS011;20617;49.476;10.986;2023-11-22T20:40:15;14.65;;;11.45;;
12878;SDS011;20617;49.476;10.986;2023-11-22T20:42:17;16.75;;;11.95;;
12878;SDS011;20617;49.476;10.986;2023-11-22T20:44:28;14.77;;;11.02;;
12878;SDS011;20617;49.476;10.986;2023-11-22T20:46:36;13.70;;;11.40;;
12878;SDS011;20617;49.476;10.986;2023-11-22T20:48:42;15.10;;;10.50;;
12878;SDS011;20617;49.476;10.986;2023-11-22T20:50:47;13.60;;;10.52;;
12878;SDS011;20617;49.476;10.986;2023-11-22T20:52:56;16.83;;;12.05;;
12878;SDS011;20617;49.476;10.986;2023-11-22T20:55:01;17.60;;;11.27;;
12878;SDS011;20617;49.476;10.986;2023-11-22T20:57:10;19.55;;;13.48;;
12878;SDS011;20617;49.476;10.986;2023-11-22T20:59:16;16.83;;;12.00;;
12878;SDS011;20617;49.476;10.986;2023-11-22T21:01:21;16.45;;;12.70;;
12878;SDS011;20617;49.476;10.986;2023-11-22T21:03:27;18.00;;;11.70;;
12878;SDS011;20617;49.476;10.986;2023-11-22T21:05:32;17.40;;;12.85;;
12878;SDS011;20617;49.476;10.986;2023-11-22T21:07:37;16.83;;;12.90;;
12878;SDS011;20617;49.476;10.986;2023-11-22T21:09:44;17.08;;;13.07;;
12878;SDS011;20617;49.476;10.986;2023-11-22T21:11:50;16.67;;;12.63;;
12878;SDS011;20617;49.476;10.986;2023-11-22T21:13:55;17.88;;;12.35;;
12878;SDS011;20617;49.476;10.986;2023-11-22T21:18:09;16.63;;;12.45;;
12878;SDS011;20617;49.476;10.986;2023-11-22T21:20:16;18.50;;;14.52;;
12878;SDS011;20617;49.476;10.986;2023-11-22T21:22:24;17.20;;;13.27;;
12878;SDS011;20617;49.476;10.986;2023-11-22T21:24:29;16.65;;;12.98;;
12878;SDS011;20617;49.476;10.986;2023-11-22T21:26:39;19.25;;;13.40;;
12878;SDS011;20617;49.476;10.986;2023-11-22T21:28:44;16.88;;;13.55;;
12878;SDS011;20617;49.476;10.986;2023-11-22T21:30:50;14.98;;;11.60;;
12878;SDS011;20617;49.476;10.986;2023-11-22T21:32:56;15.77;;;12.40;;
12878;SDS011;20617;49.476;10.986;2023-11-22T21:35:02;16.70;;;13.32;;
12878;SDS011;20617;49.476;10.986;2023-11-22T21:37:07;16.70;;;12.75;;
12878;SDS011;20617;49.476;10.986;2023-11-22T21:41:17;16.75;;;12.75;;
12878;SDS011;20617;49.476;10.986;2023-11-22T21:45:30;18.73;;;13.35;;
12878;SDS011;20617;49.476;10.986;2023-11-22T21:47:35;17.58;;;13.13;;
12878;SDS011;20617;49.476;10.986;2023-11-22T21:49:38;17.90;;;12.65;;
12878;SDS011;20617;49.476;10.986;2023-11-22T21:51:44;18.13;;;13.30;;
12878;SDS011;20617;49.476;10.986;2023-11-22T21:53:47;17.92;;;13.50;;
12878;SDS011;20617;49.476;10.986;2023-11-22T21:55:53;17.42;;;12.88;;
12878;SDS011;20617;49.476;10.986;2023-11-22T21:57:59;18.67;;;14.75;;
12878;SDS011;20617;49.476;10.986;2023-11-22T22:00:07;17.55;;;13.77;;
12878;SDS011;20617;49.476;10.986;2023-11-22T22:02:13;19.00;;;13.35;;
12878;SDS011;20617;49.476;10.986;2023-11-22T22:04:18;17.30;;;12.88;;
12878;SDS011;20617;49.476;10.986;2023-11-22T22:06:23;20.17;;;13.88;;
12878;SDS011;20617;49.476;10.986;2023-11-22T22:08:29;16.27;;;12.60;;
12878;SDS011;20617;49.476;10.986;2023-11-22T22:10:35;17.85;;;12.73;;
12878;SDS011;20617;49.476;10.986;2023-11-22T22:12:40;17.67;;;13.35;;
12878;SDS011;20617;49.476;10.986;2023-11-22T22:14:46;20.30;;;14.23;;
12878;SDS011;20617;49.476;10.986;2023-11-22T22:16:51;18.88;;;13.77;;
12878;SDS011;20617;49.476;10.986;2023-11-22T22:18:56;17.50;;;14.20;;
12878;SDS011;20617;49.476;10.986;2023-11-22T22:21:01;17.00;;;12.88;;
12878;SDS011;20617;49.476;10.986;2023-11-22T22:23:06;16.73;;;12.98;;
12878;SDS011;20617;49.476;10.986;2023-11-22T22:27:17;15.95;;;12.38;;
12878;SDS011;20617;49.476;10.986;2023-11-22T22:29:22;15.60;;;12.38;;
12878;SDS011;20617;49.476;10.986;2023-11-22T22:31:27;17.08;;;12.82;;
12878;SDS011;20617;49.476;10.986;2023-11-22T22:33:34;17.25;;;13.18;;
12878;SDS011;20617;49.476;10.986;2023-11-22T22:35:40;18.58;;;12.88;;
12878;SDS011;20617;49.476;10.986;2023-11-22T22:39:49;19.17;;;13.20;;
12878;SDS011;20617;49.476;10.986;2023-11-22T22:41:54;17.00;;;12.02;;
12878;SDS011;20617;49.476;10.986;2023-11-22T22:44:00;17.02;;;13.50;;
12878;SDS011;20617;49.476;10.986;2023-11-22T22:46:05;17.38;;;12.68;;
12878;SDS011;20617;49.476;10.986;2023-11-22T22:48:11;15.85;;;12.52;;
12878;SDS011;20617;49.476;10.986;2023-11-22T22:52:25;17.52;;;13.23;;
12878;SDS011;20617;49.476;10.986;2023-11-22T22:54:29;18.40;;;13.50;;
12878;SDS011;20617;49.476;10.986;2023-11-22T22:56:34;16.67;;;12.65;;
12878;SDS011;20617;49.476;10.986;2023-11-22T23:00:42;19.23;;;14.32;;
12878;SDS011;20617;49.476;10.986;2023-11-22T23:02:48;19.13;;;13.38;;
12878;SDS011;20617;49.476;10.986;2023-11-22T23:04:53;20.50;;;14.48;;
12878;SDS011;20617;49.476;10.986;2023-11-22T23:07:00;18.80;;;13.25;;
12878;SDS011;20617;49.476;10.986;2023-11-22T23:09:06;17.83;;;12.57;;
12878;SDS011;20617;49.476;10.986;2023-11-22T23:11:15;18.35;;;13.93;;
12878;SDS011;20617;49.476;10.986;2023-11-22T23:13:20;18.83;;;13.25;;
12878;SDS011;20617;49.476;10.986;2023-11-22T23:15:26;19.30;;;14.38;;
12878;SDS011;20617;49.476;10.986;2023-11-22T23:17:28;18.15;;;12.18;;
12878;SDS011;20617;49.476;10.986;2023-11-22T23:19:33;20.17;;;13.30;;
12878;SDS011;20617;49.476;10.986;2023-11-22T23:21:39;16.73;;;13.43;;
12878;SDS011;20617;49.476;10.986;2023-11-22T23:23:51;16.52;;;12.80;;
12878;SDS011;20617;49.476;10.986;2023-11-22T23:25:56;17.83;;;13.77;;
12878;SDS011;20617;49.476;10.986;2023-11-22T23:28:01;16.55;;;13.07;;
12878;SDS011;20617;49.476;10.986;2023-11-22T23:32:13;16.08;;;12.23;;
12878;SDS011;20617;49.476;10.986;2023-11-22T23:34:18;19.35;;;14.65;;
12878;SDS011;20617;49.476;10.986;2023-11-22T23:38:29;19.25;;;13.20;;
12878;SDS011;20617;49.476;10.986;2023-11-22T23:40:38;18.15;;;12.48;;
12878;SDS011;20617;49.476;10.986;2023-11-22T23:42:44;16.63;;;12.45;;
12878;SDS011;20617;49.476;10.986;2023-11-22T23:44:51;18.00;;;12.98;;
12878;SDS011;20617;49.476;10.986;2023-11-22T23:46:57;17.55;;;13.07;;
12878;SDS011;20617;49.476;10.986;2023-11-22T23:51:07;19.70;;;14.40;;
12878;SDS011;20617;49.476;10.986;2023-11-22T23:53:12;18.77;;;13.32;;
12878;SDS011;20617;49.476;10.986;2023-11-22T23:55:18;18.65;;;12.85;;
12878;SDS011;20617;49.476;10.986;2023-11-22T23:57:26;18.35;;;12.65;;
12878;SDS011;20617;49.476;10.986;2023-11-22T23:59:32;18.33;;;14.38;;
